ADDS METAR Data INFO
IDs: Format: Raw Decoded Include TAF

Data at: 2227 UTC 22 Aug 2017

KAXH 222215Z AUTO 02004KT 10SM SCT036 SCT048 BKN110 30/24 A2999 RMK AO2 T02990238
KAXH 222155Z AUTO 04006KT 10SM -TSRA SCT036 SCT048 BKN090 31/23 A3000 RMK AO2 T03140233
KAXH 222135Z AUTO 15008KT 10SM SCT047 SCT055 SCT090 35/23 A3000 RMK AO2 T03450230
KAXH 222115Z AUTO 16006KT 10SM CLR 34/23 A3000 RMK AO2 LTG DSNT E T03430230
KAXH 222055Z AUTO 17007KT 10SM CLR 34/23 A3000 RMK AO2 LTG DSNT NE T03420234
KAXH 222035Z AUTO 15008KT 120V180 10SM SCT065 SCT080 SCT090 34/23 A3001 RMK AO2 T03440233
KAXH 222015Z AUTO 15003KT 10SM BKN070 BKN075 35/20 A3002 RMK AO2 T03530201
KAXH 221955Z AUTO 18005KT 10SM BKN055 OVC070 35/20 A3003 RMK AO2 T03490201
KAXH 221935Z AUTO 07006KT 10SM SCT055 BKN070 35/21 A3004 RMK AO2 T03470209
KAXH 221915Z AUTO 03003KT 10SM SCT060 33/21 A3004 RMK AO2 T03280208
KAXH 221855Z AUTO 00000KT 10SM CLR 33/21 A3005 RMK AO2 T03310207
KAXH 221835Z AUTO 00000KT 10SM SCT055 33/21 A3005 RMK AO2 T03250210
KAXH 221815Z AUTO 14003KT 10SM CLR 34/21 A3006 RMK AO2 T03380209
KAXH 221755Z AUTO 00000KT 10SM CLR 33/21 A3006 RMK AO2 T03340206 10339 20215
KAXH 221735Z AUTO 00000KT 10SM CLR 33/21 A3007 RMK AO2 T03310210
KAXH 221715Z AUTO 00000KT 10SM CLR 34/21 A3008 RMK AO2 T03360208
KAXH 221655Z AUTO 17004KT 10SM CLR 33/22 A3008 RMK AO2 T03260216
KAXH 221635Z AUTO 20003KT 10SM CLR 33/21 A3009 RMK AO2 T03250211
KAXH 221615Z AUTO 00000KT 10SM CLR 32/22 A3009 RMK AO2 T03190215
KAXH 221555Z AUTO 00000KT 10SM CLR 31/21 A3009 RMK AO2 T03110211
KAXH 221535Z AUTO 00000KT 10SM CLR 30/23 A3009 RMK AO2 T03040226
KAXH 221515Z AUTO 00000KT 10SM CLR 29/24 A3008 RMK AO2 T02850236
KAXH 221455Z AUTO 00000KT 10SM CLR 29/24 A3008 RMK AO2 T02900243
KAXH 221435Z AUTO 00000KT 10SM CLR 30/25 A3007 RMK AO2 T02950249
KAXH 221415Z AUTO 00000KT 10SM CLR 29/24 A3007 RMK AO2 T02850244
KAXH 221355Z AUTO 00000KT 10SM CLR 28/25 A3007 RMK AO2 T02800245
KAXH 221335Z AUTO 00000KT 10SM CLR 27/24 A3006 RMK AO2 T02720243
KAXH 221315Z AUTO 00000KT 10SM CLR 26/24 A3006 RMK AO2 T02620241
KAXH 221255Z AUTO 00000KT 10SM CLR 24/24 A3005 RMK AO2 T02430236
KAXH 221235Z AUTO 00000KT 10SM CLR 23/22 A3004 RMK AO2 T02260222
KAXH 221215Z AUTO 00000KT 2 1/2SM BR CLR 22/21 A3004 RMK AO2 VIS 1 1/2V4 T02160212
KAXH 221155Z AUTO 00000KT 10SM CLR 22/21 A3004 RMK AO2 T02170213 10236 20216
KAXH 221135Z AUTO 00000KT 10SM CLR 22/21 A3003 RMK AO2 T02170213
KAXH 221115Z AUTO 00000KT 10SM CLR 22/22 A3003 RMK AO2 T02220218
KAXH 221055Z AUTO 00000KT 10SM SCT024 SCT029 22/22 A3003 RMK AO2 T02230219
KAXH 221035Z AUTO 00000KT 10SM BKN024 22/22 A3003 RMK AO2 T02200215
KAXH 221015Z AUTO 00000KT 10SM CLR 23/22 A3003 RMK AO2 T02250219
KAXH 220955Z AUTO 00000KT 10SM CLR 22/22 A3002 RMK AO2 T02240219
KAXH 220935Z AUTO 00000KT 10SM CLR 23/22 A3003 RMK AO2 T02260221
KAXH 220915Z AUTO 00000KT 10SM CLR 23/22 A3003 RMK AO2 T02280223
KAXH 220855Z AUTO 00000KT 10SM CLR 23/22 A3003 RMK AO2 T02290223
KAXH 220835Z AUTO 00000KT 10SM CLR 23/22 A3004 RMK AO2 T02250220
KAXH 220815Z AUTO 00000KT 7SM CLR 22/22 A3004 RMK AO2 T02230218
KAXH 220755Z AUTO 00000KT 10SM CLR 23/23 A3004 RMK AO2 T02300225
KAXH 220735Z AUTO 00000KT 10SM CLR 23/23 A3005 RMK AO2 T02310226
KAXH 220715Z AUTO 00000KT 10SM CLR 23/23 A3005 RMK AO2 T02310225
KAXH 220655Z AUTO 00000KT 10SM CLR 23/22 A3006 RMK AO2 T02300223
KAXH 220635Z AUTO 00000KT 10SM CLR 23/23 A3006 RMK AO2 T02340227
KAXH 220615Z AUTO 00000KT 10SM CLR 24/23 A3007 RMK AO2 T02350228
KAXH 220555Z AUTO 00000KT 10SM CLR 24/23 A3007 RMK AO2 T02350227 10309 20235
KAXH 220535Z AUTO 00000KT 10SM CLR 24/23 A3008 RMK AO2 T02420233
KAXH 220515Z AUTO 00000KT 10SM CLR 24/23 A3008 RMK AO2 T02420232
KAXH 220455Z AUTO 00000KT 10SM CLR 24/23 A3009 RMK AO2 T02410231
KAXH 220435Z AUTO 00000KT 10SM CLR 24/23 A3009 RMK AO2 LTG DSNT E T02420231
KAXH 220415Z AUTO 00000KT 10SM CLR 25/23 A3009 RMK AO2 T02450234
KAXH 220355Z AUTO 00000KT 10SM CLR 25/24 A3009 RMK AO2 T02500235
KAXH 220335Z AUTO 00000KT 10SM CLR 25/24 A3009 RMK AO2 T02520235
KAXH 220315Z AUTO 13003KT 10SM SCT025 26/24 A3009 RMK AO2 T02560235
KAXH 220255Z AUTO 00000KT 10SM SCT027 26/24 A3009 RMK AO2 T02600235
KAXH 220235Z AUTO 00000KT 10SM CLR 26/23 A3007 RMK AO2 T02570233
KAXH 220215Z AUTO 00000KT 10SM CLR 26/24 A3006 RMK AO2 T02600235
KAXH 220155Z AUTO 13003KT 10SM CLR 27/23 A3006 RMK AO2 T02650233
KAXH 220135Z AUTO 00000KT 10SM CLR 27/23 A3006 RMK AO2 T02700233
KAXH 220115Z AUTO 13003KT 10SM CLR 28/23 A3005 RMK AO2 T02750231
KAXH 220055Z AUTO 14004KT 10SM CLR 28/23 A3004 RMK AO2 T02830231
KAXH 220035Z AUTO 14004KT 10SM CLR 29/23 A3004 RMK AO2 T02940230
KAXH 220015Z AUTO 13006KT 10SM CLR 30/23 A3004 RMK AO2 LTG DSNT E T03020230
KAXH 212355Z AUTO 15006KT 10SM CLR 31/23 A3003 RMK AO2 T03100230 10340 20310
KAXH 212335Z AUTO 16007KT 10SM SCT046 32/23 A3002 RMK AO2 T03160233
KAXH 212315Z AUTO 15006KT 10SM SCT045 32/23 A3002 RMK AO2 T03200231
KAXH 212255Z AUTO 14008KT 10SM SCT045 33/23 A3003 RMK AO2 T03250230
KAXH 212235Z AUTO 15007KT 10SM SCT047 SCT055 33/23 A3003 RMK AO2 T03270225
KAXH 212215Z AUTO 17005KT 10SM SCT047 33/23 A3002 RMK AO2 T03340226
KAXH 212155Z AUTO 11008KT 10SM SCT045 34/23 A3002 RMK AO2 T03390228
KAXH 212135Z AUTO 16005KT 10SM SCT045 33/23 A3003 RMK AO2 T03310231
KAXH 212115Z AUTO 14007KT 10SM SCT045 SCT050 33/23 A3003 RMK AO2 T03340234
KAXH 212055Z AUTO 12009KT 10SM CLR 33/22 A3003 RMK AO2 T03330222
KAXH 212035Z AUTO 12006KT 10SM CLR 34/23 A3004 RMK AO2 T03400227
KAXH 212015Z AUTO 13007KT 10SM CLR 34/23 A3005 RMK AO2 T03370230
KAXH 211955Z AUTO 15005KT 10SM CLR 34/23 A3005 RMK AO2 T03350234
KAXH 211935Z AUTO 12008KT 090V150 10SM CLR 33/24 A3005 RMK AO2 LTG DSNT NW T03300235
KAXH 211915Z AUTO 17008KT 10SM CLR 32/24 A3005 RMK AO2 LTG DSNT NW T03220235
KAXH 211855Z AUTO 14006KT 10SM CLR 32/23 A3006 RMK AO2 T03170232
KAXH 211835Z AUTO 12006KT 10SM CLR 31/23 A3006 RMK AO2 T03140233
KAXH 211815Z AUTO 13005KT 10SM SCT047 SCT070 32/23 A3006 RMK AO2 T03160225
KAXH 211755Z AUTO 13006KT 10SM SCT038 SCT045 SCT070 32/23 A3007 RMK AO2 T03220231
KAXH 211735Z AUTO 11003KT 10SM BKN040 BKN050 33/24 A3007 RMK AO2 T03250238
KAXH 211715Z AUTO 14004KT 10SM SCT042 SCT048 SCT055 33/23 A3008 RMK AO2 T03260225
KAXH 211655Z AUTO 15004KT 10SM SCT042 BKN048 32/23 A3008 RMK AO2 T03230231
KAXH 211635Z AUTO 10006KT 10SM BKN037 BKN046 33/23 A3008 RMK AO2 T03290229
KAXH 211615Z AUTO 14004KT 10SM BKN035 BKN042 BKN048 32/23 A3008 RMK AO2 T03200228
KAXH 211555Z AUTO 20004KT 10SM SCT031 BKN044 A3008 RMK AO2
KAXH 211535Z AUTO 12003KT 10SM SCT002 SCT029 BKN044 A3008 RMK AO2
KAXH 211515Z AUTO 15003KT 10SM SCT027 SCT035 BKN043 30/27 A3008 RMK AO2 T03000265
KAXH 211455Z AUTO 00000KT 10SM SCT026 SCT032 SCT039 31/25 A3008 RMK AO2 T03090248
KAXH 211435Z AUTO 14003KT 10SM CLR 30/25 A3008 RMK AO2 T03030249
KAXH 211415Z AUTO 12003KT 10SM CLR 30/25 A3007 RMK AO2 T02970250
KAXH 211355Z AUTO 00000KT 10SM CLR 29/25 A3007 RMK AO2 T02870251
KAXH 211335Z AUTO 00000KT 10SM CLR A3006 RMK AO2
KAXH 211315Z AUTO 00000KT 10SM CLR A3006 RMK AO2
KAXH 211255Z AUTO 00000KT 7SM CLR A3006 RMK AO2
KAXH 211235Z AUTO 00000KT 7SM CLR A3005 RMK AO2
KAXH 211215Z AUTO 00000KT 5SM HZ SCT025 A3005 RMK AO2
KAXH 211155Z AUTO 00000KT 10SM CLR A3005 RMK AO2 70003
KAXH 211135Z AUTO 00000KT 10SM CLR A3005 RMK AO2
KAXH 211115Z AUTO 00000KT 10SM CLR A3006 RMK AO2
KAXH 211055Z AUTO 00000KT 10SM CLR A3005 RMK AO2
KAXH 211035Z AUTO 00000KT 10SM CLR A3005 RMK AO2